Albia, Iowa
Current Conditions -  °F | °C
As of 4:38 PM on Sunday 23 Nov 2014 (Local Time) from KOTM Reporting Station
Haze Haze  
Wind Chill: 53°   Ceiling: 700
Heat Index: 53°   Visibility: 4mi
Dew Point: 52°   Wind: 3mph
Humidity: 96%   Direction: 260°W
Pressure: 29.31"   Gusts: NA
Location:  41.03°N, 92.81°W
Report Text: KOTM 232238Z AUTO 26003KT 4SM BR OVC007 12/11 A2931 RMK AO2 RAE2154B22E35 P0000 T01170111
Loading
Personal Weather Stations






























Interactive Weather Map New forecast layout! Learn more

10-Day Weather Forecast

Advertisements
Track Severe Weather on mobile